sensor_id;sensor_type;location;lat;lon;timestamp;pressure;altitude;pressure_sealevel;temperature;humidity
58082;BME280;43876;55.576;38.242;2022-08-21T00:01:52;100838.19;;;16.90;44.02
58082;BME280;43876;55.576;38.242;2022-08-21T00:04:19;100825.91;;;16.86;44.16
58082;BME280;43876;55.576;38.242;2022-08-21T00:06:50;100836.44;;;16.89;43.97
58082;BME280;43876;55.576;38.242;2022-08-21T00:09:18;100833.81;;;16.88;44.25
58082;BME280;43876;55.576;38.242;2022-08-21T00:11:46;100794.31;;;16.72;43.90
58082;BME280;43876;55.576;38.242;2022-08-21T00:14:15;100831.16;;;16.89;44.14
58082;BME280;43876;55.576;38.242;2022-08-21T00:16:42;100817.16;;;16.75;44.17
58082;BME280;43876;55.576;38.242;2022-08-21T00:19:09;100824.16;;;16.79;44.38
58082;BME280;43876;55.576;38.242;2022-08-21T00:21:36;100840.00;;;16.79;44.27
58082;BME280;43876;55.576;38.242;2022-08-21T00:24:04;100834.75;;;16.76;44.53
58082;BME280;43876;55.576;38.242;2022-08-21T00:26:33;100833.03;;;16.70;44.71
58082;BME280;43876;55.576;38.242;2022-08-21T00:29:03;100833.06;;;16.64;45.01
58082;BME280;43876;55.576;38.242;2022-08-21T00:31:30;100819.91;;;16.58;45.06
58082;BME280;43876;55.576;38.242;2022-08-21T00:33:58;100831.34;;;16.58;44.97
58082;BME280;43876;55.576;38.242;2022-08-21T00:36:28;100808.56;;;16.41;45.17
58082;BME280;43876;55.576;38.242;2022-08-21T00:38:55;100836.63;;;16.55;45.23
58082;BME280;43876;55.576;38.242;2022-08-21T00:41:23;100817.31;;;16.49;45.06
58082;BME280;43876;55.576;38.242;2022-08-21T00:44:07;100811.22;;;16.42;45.14
58082;BME280;43876;55.576;38.242;2022-08-21T00:46:35;100813.81;;;16.48;45.34
58082;BME280;43876;55.576;38.242;2022-08-21T00:49:04;100824.38;;;16.47;45.27
58082;BME280;43876;55.576;38.242;2022-08-21T00:54:09;100801.59;;;16.32;45.08
58082;BME280;43876;55.576;38.242;2022-08-21T00:56:45;100820.03;;;16.38;45.22
58082;BME280;43876;55.576;38.242;2022-08-21T00:59:12;100806.91;;;16.27;45.30
58082;BME280;43876;55.576;38.242;2022-08-21T01:01:40;100770.06;;;16.10;45.23
58082;BME280;43876;55.576;38.242;2022-08-21T01:04:07;100834.97;;;16.34;45.38
58082;BME280;43876;55.576;38.242;2022-08-21T01:06:34;100835.91;;;16.29;45.36
58082;BME280;43876;55.576;38.242;2022-08-21T01:09:02;100831.53;;;16.26;45.37
58082;BME280;43876;55.576;38.242;2022-08-21T01:11:30;100771.06;;;15.88;45.38
58082;BME280;43876;55.576;38.242;2022-08-21T01:13:57;100803.47;;;16.02;45.67
58082;BME280;43876;55.576;38.242;2022-08-21T01:16:25;100793.84;;;16.03;45.69
58082;BME280;43876;55.576;38.242;2022-08-21T01:18:52;100835.03;;;16.22;45.70
58082;BME280;43876;55.576;38.242;2022-08-21T01:21:25;100835.91;;;16.20;45.63
58082;BME280;43876;55.576;38.242;2022-08-21T01:23:56;100836.81;;;16.18;45.63
58082;BME280;43876;55.576;38.242;2022-08-21T01:26:28;100827.16;;;16.16;45.90
58082;BME280;43876;55.576;38.242;2022-08-21T01:31:46;100831.59;;;16.08;46.18
58082;BME280;43876;55.576;38.242;2022-08-21T01:34:13;100829.84;;;16.04;46.23
58082;BME280;43876;55.576;38.242;2022-08-21T01:36:44;100821.97;;;15.96;46.61
58082;BME280;43876;55.576;38.242;2022-08-21T01:39:11;100827.25;;;15.90;46.87
58082;BME280;43876;55.576;38.242;2022-08-21T01:41:39;100827.28;;;15.85;46.56
58082;BME280;43876;55.576;38.242;2022-08-21T01:44:05;100818.50;;;15.71;46.92
58082;BME280;43876;55.576;38.242;2022-08-21T01:46:35;100821.16;;;15.75;47.06
58082;BME280;43876;55.576;38.242;2022-08-21T01:49:04;100836.06;;;15.76;47.42
58082;BME280;43876;55.576;38.242;2022-08-21T01:51:32;100816.75;;;15.64;47.27
58082;BME280;43876;55.576;38.242;2022-08-21T01:53:59;100831.69;;;15.65;47.33
58082;BME280;43876;55.576;38.242;2022-08-21T01:56:26;100843.94;;;15.67;47.35
58082;BME280;43876;55.576;38.242;2022-08-21T01:58:54;100836.94;;;15.66;47.34
58082;BME280;43876;55.576;38.242;2022-08-21T02:01:21;100840.47;;;15.62;47.62
58082;BME280;43876;55.576;38.242;2022-08-21T02:03:49;100843.06;;;15.65;47.34
58082;BME280;43876;55.576;38.242;2022-08-21T02:06:16;100824.66;;;15.54;47.51
58082;BME280;43876;55.576;38.242;2022-08-21T02:08:45;100843.97;;;15.64;47.20
58082;BME280;43876;55.576;38.242;2022-08-21T02:11:12;100830.81;;;15.56;47.24
58082;BME280;43876;55.576;38.242;2022-08-21T02:13:40;100828.16;;;15.63;47.22
58082;BME280;43876;55.576;38.242;2022-08-21T02:16:07;100846.59;;;15.69;47.35
58082;BME280;43876;55.576;38.242;2022-08-21T02:18:35;100831.66;;;15.68;47.02
58082;BME280;43876;55.576;38.242;2022-08-21T02:21:03;100810.59;;;15.57;46.73
58082;BME280;43876;55.576;38.242;2022-08-21T02:23:31;100822.00;;;15.70;46.99
58082;BME280;43876;55.576;38.242;2022-08-21T02:26:00;100790.41;;;15.59;46.95
58082;BME280;43876;55.576;38.242;2022-08-21T02:28:28;100851.88;;;15.86;46.81
58082;BME280;43876;55.576;38.242;2022-08-21T02:30:55;100835.16;;;15.87;47.01
58082;BME280;43876;55.576;38.242;2022-08-21T02:33:23;100834.31;;;15.80;46.83
58082;BME280;43876;55.576;38.242;2022-08-21T02:35:51;100822.88;;;15.69;47.11
58082;BME280;43876;55.576;38.242;2022-08-21T02:38:26;100847.47;;;15.82;46.99
58082;BME280;43876;55.576;38.242;2022-08-21T02:40:54;100850.13;;;15.83;47.33
58082;BME280;43876;55.576;38.242;2022-08-21T02:43:23;100848.34;;;15.90;46.83
58082;BME280;43876;55.576;38.242;2022-08-21T02:45:52;100833.41;;;15.90;46.40
58082;BME280;43876;55.576;38.242;2022-08-21T02:48:23;100855.31;;;16.08;46.51
58082;BME280;43876;55.576;38.242;2022-08-21T02:51:02;100821.97;;;15.96;46.30
58082;BME280;43876;55.576;38.242;2022-08-21T02:53:30;100838.56;;;16.16;46.03
58082;BME280;43876;55.576;38.242;2022-08-21T02:56:00;100846.41;;;16.32;45.81
58082;BME280;43876;55.576;38.242;2022-08-21T02:58:30;100841.09;;;16.43;45.63
58082;BME280;43876;55.576;38.242;2022-08-21T03:00:58;100807.75;;;16.31;45.34
58082;BME280;43876;55.576;38.242;2022-08-21T03:03:26;100849.78;;;16.62;45.23
58082;BME280;43876;55.576;38.242;2022-08-21T03:05:54;100795.41;;;16.44;44.64
58082;BME280;43876;55.576;38.242;2022-08-21T03:08:22;100844.44;;;16.74;44.78
58082;BME280;43876;55.576;38.242;2022-08-21T03:10:53;100847.03;;;16.85;44.60
58082;BME280;43876;55.576;38.242;2022-08-21T03:13:20;100829.44;;;16.79;44.23
58082;BME280;43876;55.576;38.242;2022-08-21T03:15:49;100849.56;;;16.98;44.10
58082;BME280;43876;55.576;38.242;2022-08-21T03:18:17;100847.72;;;17.14;43.82
58082;BME280;43876;55.576;38.242;2022-08-21T03:20:44;100856.38;;;17.30;43.50
58082;BME280;43876;55.576;38.242;2022-08-21T03:23:15;100844.47;;;17.77;42.52
58082;BME280;43876;55.576;38.242;2022-08-21T03:25:46;100842.13;;;18.94;40.03
58082;BME280;43876;55.576;38.242;2022-08-21T03:28:19;100799.34;;;19.68;38.04
58082;BME280;43876;55.576;38.242;2022-08-21T03:30:49;100826.94;;;20.85;35.76
58082;BME280;43876;55.576;38.242;2022-08-21T03:33:18;100836.78;;;21.18;35.35
58082;BME280;43876;55.576;38.242;2022-08-21T03:35:52;100839.59;;;21.47;34.56
58082;BME280;43876;55.576;38.242;2022-08-21T03:38:22;100830.75;;;21.80;34.03
58082;BME280;43876;55.576;38.242;2022-08-21T03:40:52;100826.47;;;22.37;33.23
58082;BME280;43876;55.576;38.242;2022-08-21T03:43:20;100836.69;;;22.22;33.00
58082;BME280;43876;55.576;38.242;2022-08-21T03:45:47;100839.53;;;21.83;33.71
58082;BME280;43876;55.576;38.242;2022-08-21T03:48:14;100841.19;;;21.19;34.52
58082;BME280;43876;55.576;38.242;2022-08-21T03:50:43;100840.41;;;20.37;36.33
58082;BME280;43876;55.576;38.242;2022-08-21T03:53:11;100806.06;;;19.88;36.94
58082;BME280;43876;55.576;38.242;2022-08-21T03:55:45;100836.16;;;19.85;37.21
58082;BME280;43876;55.576;38.242;2022-08-21T03:58:14;100846.34;;;19.58;38.10
58082;BME280;43876;55.576;38.242;2022-08-21T04:00:47;100841.53;;;19.82;37.76
58082;BME280;43876;55.576;38.242;2022-08-21T04:03:16;100842.41;;;19.81;37.55
58082;BME280;43876;55.576;38.242;2022-08-21T04:05:43;100820.50;;;19.73;37.62
58082;BME280;43876;55.576;38.242;2022-08-21T04:08:13;100805.63;;;19.64;37.61
58082;BME280;43876;55.576;38.242;2022-08-21T04:10:42;100834.44;;;19.82;37.75
58082;BME280;43876;55.576;38.242;2022-08-21T04:13:11;100818.44;;;19.87;37.59
58082;BME280;43876;55.576;38.242;2022-08-21T04:15:38;100826.28;;;19.93;37.37
58082;BME280;43876;55.576;38.242;2022-08-21T04:18:05;100835.06;;;19.95;37.33
58082;BME280;43876;55.576;38.242;2022-08-21T04:20:33;100821.84;;;19.94;37.51
58082;BME280;43876;55.576;38.242;2022-08-21T04:23:01;100839.28;;;20.07;37.26
58082;BME280;43876;55.576;38.242;2022-08-21T04:25:29;100848.41;;;19.92;37.56
58082;BME280;43876;55.576;38.242;2022-08-21T04:27:56;100826.50;;;19.81;37.71
58082;BME280;43876;55.576;38.242;2022-08-21T04:30:24;100828.38;;;19.76;37.52
58082;BME280;43876;55.576;38.242;2022-08-21T04:32:56;100829.97;;;19.86;37.67
58082;BME280;43876;55.576;38.242;2022-08-21T04:35:26;100842.63;;;20.15;37.05
58082;BME280;43876;55.576;38.242;2022-08-21T04:37:54;100818.81;;;20.12;37.06
58082;BME280;43876;55.576;38.242;2022-08-21T04:40:22;100807.03;;;20.25;36.52
58082;BME280;43876;55.576;38.242;2022-08-21T04:43:10;100828.47;;;20.57;36.32
58082;BME280;43876;55.576;38.242;2022-08-21T04:45:40;100801.78;;;20.64;35.72
58082;BME280;43876;55.576;38.242;2022-08-21T04:48:12;100839.78;;;21.04;35.34
58082;BME280;43876;55.576;38.242;2022-08-21T04:50:54;100846.19;;;20.95;35.74
58082;BME280;43876;55.576;38.242;2022-08-21T04:53:36;100845.25;;;20.98;35.83
58082;BME280;43876;55.576;38.242;2022-08-21T04:56:08;100848.41;;;21.12;35.27
58082;BME280;43876;55.576;38.242;2022-08-21T04:58:37;100839.78;;;21.04;35.31
58082;BME280;43876;55.576;38.242;2022-08-21T05:01:09;100842.44;;;21.04;35.30
58082;BME280;43876;55.576;38.242;2022-08-21T05:03:38;100846.56;;;21.16;35.16
58082;BME280;43876;55.576;38.242;2022-08-21T05:06:08;100836.72;;;21.21;35.72
58082;BME280;43876;55.576;38.242;2022-08-21T05:08:38;100824.06;;;21.65;34.48
58082;BME280;43876;55.576;38.242;2022-08-21T05:11:06;100809.81;;;21.67;34.02
58082;BME280;43876;55.576;38.242;2022-08-21T05:13:33;100836.88;;;21.83;33.31
58082;BME280;43876;55.576;38.242;2022-08-21T05:16:00;100846.88;;;21.74;33.91
58082;BME280;43876;55.576;38.242;2022-08-21T05:18:27;100838.28;;;21.64;33.58
58082;BME280;43876;55.576;38.242;2022-08-21T05:20:54;100849.38;;;21.80;33.74
58082;BME280;43876;55.576;38.242;2022-08-21T05:23:21;100814.63;;;21.86;33.35
58082;BME280;43876;55.576;38.242;2022-08-21T05:25:48;100830.88;;;22.06;33.31
58082;BME280;43876;55.576;38.242;2022-08-21T05:28:16;100832.88;;;21.98;33.53
58082;BME280;43876;55.576;38.242;2022-08-21T05:30:45;100797.81;;;21.85;33.64
58082;BME280;43876;55.576;38.242;2022-08-21T05:33:12;100840.84;;;21.67;33.56
58082;BME280;43876;55.576;38.242;2022-08-21T05:35:39;100850.97;;;21.53;34.33
58082;BME280;43876;55.576;38.242;2022-08-21T05:38:07;100845.44;;;21.62;34.21
58082;BME280;43876;55.576;38.242;2022-08-21T05:40:45;100826.13;;;21.86;33.64
58082;BME280;43876;55.576;38.242;2022-08-21T05:43:13;100842.88;;;21.57;34.14
58082;BME280;43876;55.576;38.242;2022-08-21T05:45:41;100821.56;;;21.24;34.71
58082;BME280;43876;55.576;38.242;2022-08-21T05:48:14;100804.50;;;20.99;35.05
58082;BME280;43876;55.576;38.242;2022-08-21T05:50:42;100819.13;;;21.17;34.97
58082;BME280;43876;55.576;38.242;2022-08-21T05:53:11;100828.75;;;21.55;34.28
58082;BME280;43876;55.576;38.242;2022-08-21T05:55:41;100830.28;;;21.97;33.89
58082;BME280;43876;55.576;38.242;2022-08-21T05:58:17;100830.44;;;22.22;33.40
58082;BME280;43876;55.576;38.242;2022-08-21T06:00:46;100832.56;;;22.42;33.26
58082;BME280;43876;55.576;38.242;2022-08-21T06:03:15;100823.91;;;22.34;33.62
58082;BME280;43876;55.576;38.242;2022-08-21T06:05:44;100828.13;;;22.41;32.90
58082;BME280;43876;55.576;38.242;2022-08-21T06:08:13;100820.53;;;22.28;32.89
58082;BME280;43876;55.576;38.242;2022-08-21T06:10:41;100782.63;;;22.19;32.94
58082;BME280;43876;55.576;38.242;2022-08-21T06:13:08;100826.91;;;22.53;32.94
58082;BME280;43876;55.576;38.242;2022-08-21T06:15:37;100822.31;;;22.56;32.81
58082;BME280;43876;55.576;38.242;2022-08-21T06:18:04;100813.34;;;22.60;32.63
58082;BME280;43876;55.576;38.242;2022-08-21T06:20:32;100816.44;;;22.75;31.04
58082;BME280;43876;55.576;38.242;2022-08-21T06:23:00;100816.25;;;22.81;31.54
58082;BME280;43876;55.576;38.242;2022-08-21T06:25:27;100799.00;;;22.64;31.72
58082;BME280;43876;55.576;38.242;2022-08-21T06:30:29;100809.38;;;23.02;30.84
58082;BME280;43876;55.576;38.242;2022-08-21T06:32:57;100800.38;;;23.06;30.92
58082;BME280;43876;55.576;38.242;2022-08-21T06:35:24;100778.31;;;22.99;30.32
58082;BME280;43876;55.576;38.242;2022-08-21T06:37:51;100804.28;;;23.21;30.37
58082;BME280;43876;55.576;38.242;2022-08-21T06:40:19;100810.84;;;23.37;30.59
58082;BME280;43876;55.576;38.242;2022-08-21T06:42:52;100811.16;;;23.53;30.13
58082;BME280;43876;55.576;38.242;2022-08-21T06:45:19;100800.13;;;23.39;30.29
58082;BME280;43876;55.576;38.242;2022-08-21T06:47:47;100800.28;;;23.34;30.58
58082;BME280;43876;55.576;38.242;2022-08-21T06:50:14;100797.50;;;23.37;30.31
58082;BME280;43876;55.576;38.242;2022-08-21T06:52:42;100805.81;;;23.53;29.95
58082;BME280;43876;55.576;38.242;2022-08-21T06:55:09;100784.19;;;23.62;29.25
58082;BME280;43876;55.576;38.242;2022-08-21T06:57:37;100772.75;;;23.59;28.81
58082;BME280;43876;55.576;38.242;2022-08-21T07:00:06;100784.56;;;23.77;28.45
58082;BME280;43876;55.576;38.242;2022-08-21T07:02:33;100777.53;;;23.74;27.71
58082;BME280;43876;55.576;38.242;2022-08-21T07:05:01;100800.91;;;23.92;27.53
58082;BME280;43876;55.576;38.242;2022-08-21T07:07:45;100782.16;;;23.94;27.17
58082;BME280;43876;55.576;38.242;2022-08-21T07:10:14;100793.53;;;24.23;26.82
58082;BME280;43876;55.576;38.242;2022-08-21T07:12:49;100758.94;;;24.20;26.93
58082;BME280;43876;55.576;38.242;2022-08-21T07:15:31;100783.53;;;24.28;26.71
58082;BME280;43876;55.576;38.242;2022-08-21T07:17:59;100796.06;;;24.49;26.17
58082;BME280;43876;55.576;38.242;2022-08-21T07:20:27;100777.75;;;24.62;26.53
58082;BME280;43876;55.576;38.242;2022-08-21T07:22:57;100765.56;;;24.77;26.49
58082;BME280;43876;55.576;38.242;2022-08-21T07:25:27;100784.69;;;25.10;25.90
58082;BME280;43876;55.576;38.242;2022-08-21T07:27:54;100755.84;;;24.97;24.85
58082;BME280;43876;55.576;38.242;2022-08-21T07:30:22;100781.84;;;24.93;24.57
58082;BME280;43876;55.576;38.242;2022-08-21T07:32:49;100762.34;;;24.69;24.76
58082;BME280;43876;55.576;38.242;2022-08-21T07:35:18;100790.19;;;24.85;24.68
58082;BME280;43876;55.576;38.242;2022-08-21T07:37:46;100776.22;;;24.99;24.94
58082;BME280;43876;55.576;38.242;2022-08-21T07:40:14;100785.94;;;25.24;24.50
58082;BME280;43876;55.576;38.242;2022-08-21T07:42:45;100774.44;;;25.22;24.20
58082;BME280;43876;55.576;38.242;2022-08-21T07:45:13;100774.84;;;25.11;24.12
58082;BME280;43876;55.576;38.242;2022-08-21T07:47:41;100785.75;;;25.06;24.21
58082;BME280;43876;55.576;38.242;2022-08-21T07:50:13;100780.00;;;25.16;24.08
58082;BME280;43876;55.576;38.242;2022-08-21T07:52:41;100735.81;;;25.07;24.37
58082;BME280;43876;55.576;38.242;2022-08-21T07:55:11;100750.75;;;25.33;23.70
58082;BME280;43876;55.576;38.242;2022-08-21T07:57:38;100783.00;;;25.30;23.18
58082;BME280;43876;55.576;38.242;2022-08-21T08:00:08;100706.22;;;24.91;23.17
58082;BME280;43876;55.576;38.242;2022-08-21T08:02:40;100752.91;;;25.45;23.02
58082;BME280;43876;55.576;38.242;2022-08-21T08:05:09;100733.97;;;25.50;22.70
58082;BME280;43876;55.576;38.242;2022-08-21T08:07:37;100738.78;;;25.62;22.28
58082;BME280;43876;55.576;38.242;2022-08-21T08:10:07;100740.72;;;25.59;22.18
58082;BME280;43876;55.576;38.242;2022-08-21T08:12:36;100747.50;;;25.66;22.19
58082;BME280;43876;55.576;38.242;2022-08-21T08:15:04;100746.00;;;25.40;22.86
58082;BME280;43876;55.576;38.242;2022-08-21T08:17:31;100734.78;;;25.52;22.21
58082;BME280;43876;55.576;38.242;2022-08-21T08:19:59;100740.91;;;25.54;21.76
58082;BME280;43876;55.576;38.242;2022-08-21T08:22:29;100723.78;;;25.58;21.60
58082;BME280;43876;55.576;38.242;2022-08-21T08:24:56;100733.41;;;25.81;21.21
58082;BME280;43876;55.576;38.242;2022-08-21T08:27:23;100700.22;;;25.85;21.10
58082;BME280;43876;55.576;38.242;2022-08-21T08:29:50;100705.84;;;26.00;21.33
58082;BME280;43876;55.576;38.242;2022-08-21T08:32:18;100673.47;;;25.85;21.62
58082;BME280;43876;55.576;38.242;2022-08-21T08:34:46;100728.63;;;26.08;21.63
58082;BME280;43876;55.576;38.242;2022-08-21T08:37:15;100708.25;;;25.85;21.43
58082;BME280;43876;55.576;38.242;2022-08-21T08:39:43;100713.94;;;25.79;21.17
58082;BME280;43876;55.576;38.242;2022-08-21T08:42:14;100715.63;;;25.61;21.57
58082;BME280;43876;55.576;38.242;2022-08-21T08:45:06;100724.91;;;25.73;21.29
58082;BME280;43876;55.576;38.242;2022-08-21T08:47:37;100726.03;;;25.67;21.53
58082;BME280;43876;55.576;38.242;2022-08-21T08:50:19;100704.41;;;25.72;20.95
58082;BME280;43876;55.576;38.242;2022-08-21T08:52:59;100723.03;;;25.94;21.14
58082;BME280;43876;55.576;38.242;2022-08-21T08:55:37;100710.75;;;26.09;20.59
58082;BME280;43876;55.576;38.242;2022-08-21T08:58:06;100712.81;;;26.40;20.75
58082;BME280;43876;55.576;38.242;2022-08-21T09:00:34;100698.03;;;26.50;20.33
58082;BME280;43876;55.576;38.242;2022-08-21T09:03:02;100692.81;;;26.66;20.03
58082;BME280;43876;55.576;38.242;2022-08-21T09:05:45;100702.03;;;26.95;19.99
58082;BME280;43876;55.576;38.242;2022-08-21T09:11:21;100700.22;;;27.31;18.86
58082;BME280;43876;55.576;38.242;2022-08-21T09:13:55;100712.28;;;27.40;19.21
58082;BME280;43876;55.576;38.242;2022-08-21T09:27:34;100716.84;;;27.03;18.91
58082;BME280;43876;55.576;38.242;2022-08-21T09:30:05;100716.94;;;27.01;19.02
58082;BME280;43876;55.576;38.242;2022-08-21T09:32:35;100672.94;;;26.88;19.10
58082;BME280;43876;55.576;38.242;2022-08-21T09:35:18;100705.41;;;26.99;19.05
58082;BME280;43876;55.576;38.242;2022-08-21T09:37:51;100700.53;;;27.07;19.36
58082;BME280;43876;55.576;38.242;2022-08-21T09:45:36;100699.41;;;27.95;18.60
58082;BME280;43876;55.576;38.242;2022-08-21T09:50:42;100700.97;;;28.63;17.65
58082;BME280;43876;55.576;38.242;2022-08-21T09:53:21;100686.91;;;28.74;17.55
58082;BME280;43876;55.576;38.242;2022-08-21T09:56:04;100689.31;;;28.93;17.62
58082;BME280;43876;55.576;38.242;2022-08-21T09:58:51;100698.38;;;28.62;17.96
58082;BME280;43876;55.576;38.242;2022-08-21T10:01:24;100663.03;;;28.37;18.18
58082;BME280;43876;55.576;38.242;2022-08-21T10:04:08;100725.66;;;28.70;17.56
58082;BME280;43876;55.576;38.242;2022-08-21T10:06:35;100711.97;;;28.43;18.03
58082;BME280;43876;55.576;38.242;2022-08-21T10:09:13;100705.66;;;28.28;18.48
58082;BME280;43876;55.576;38.242;2022-08-21T10:12:15;100710.94;;;28.13;18.49
58082;BME280;43876;55.576;38.242;2022-08-21T10:15:06;100705.75;;;28.10;18.76
58082;BME280;43876;55.576;38.242;2022-08-21T10:20:25;100701.06;;;28.30;18.76
58082;BME280;43876;55.576;38.242;2022-08-21T10:47:35;100678.38;;;27.39;18.52
58082;BME280;43876;55.576;38.242;2022-08-21T10:55:45;100675.13;;;27.81;18.74
58082;BME280;43876;55.576;38.242;2022-08-21T11:00:57;100691.72;;;28.05;18.78
58082;BME280;43876;55.576;38.242;2022-08-21T11:05:59;100676.03;;;27.97;18.78
58082;BME280;43876;55.576;38.242;2022-08-21T11:08:39;100688.50;;;28.14;18.80
58082;BME280;43876;55.576;38.242;2022-08-21T11:11:20;100685.91;;;28.29;18.83
58082;BME280;43876;55.576;38.242;2022-08-21T11:13:56;100679.13;;;28.37;18.50
58082;BME280;43876;55.576;38.242;2022-08-21T11:16:33;100680.84;;;28.38;18.96
58082;BME280;43876;55.576;38.242;2022-08-21T11:19:19;100676.88;;;28.30;18.53
58082;BME280;43876;55.576;38.242;2022-08-21T11:29:35;100690.59;;;28.09;18.99
58082;BME280;43876;55.576;38.242;2022-08-21T11:40:47;100678.84;;;27.29;20.17
58082;BME280;43876;55.576;38.242;2022-08-21T11:45:55;100688.19;;;27.21;20.17
58082;BME280;43876;55.576;38.242;2022-08-21T11:51:20;100632.34;;;26.95;20.29
58082;BME280;43876;55.576;38.242;2022-08-21T11:54:02;100667.56;;;27.05;20.55
58082;BME280;43876;55.576;38.242;2022-08-21T11:56:40;100662.91;;;27.09;20.76
58082;BME280;43876;55.576;38.242;2022-08-21T11:59:19;100671.28;;;27.03;20.92
58082;BME280;43876;55.576;38.242;2022-08-21T12:01:50;100682.50;;;26.93;21.04
58082;BME280;43876;55.576;38.242;2022-08-21T12:04:30;100669.63;;;27.00;20.98
58082;BME280;43876;55.576;38.242;2022-08-21T12:07:14;100661.13;;;26.92;21.16
58082;BME280;43876;55.576;38.242;2022-08-21T12:09:54;100679.25;;;27.04;21.18
58082;BME280;43876;55.576;38.242;2022-08-21T12:12:28;100676.09;;;26.79;21.29
58082;BME280;43876;55.576;38.242;2022-08-21T12:17:37;100653.94;;;26.75;21.79
58082;BME280;43876;55.576;38.242;2022-08-21T12:22:50;100669.00;;;26.95;21.76
58082;BME280;43876;55.576;38.242;2022-08-21T12:25:21;100670.00;;;27.10;21.49
58082;BME280;43876;55.576;38.242;2022-08-21T12:28:06;100659.19;;;27.11;21.56
58082;BME280;43876;55.576;38.242;2022-08-21T12:30:38;100622.81;;;26.90;21.77
58082;BME280;43876;55.576;38.242;2022-08-21T12:33:31;100616.59;;;26.89;22.00
58082;BME280;43876;55.576;38.242;2022-08-21T12:36:15;100656.31;;;26.99;21.69
58082;BME280;43876;55.576;38.242;2022-08-21T12:39:01;100638.72;;;26.93;21.90
58082;BME280;43876;55.576;38.242;2022-08-21T12:44:39;100638.41;;;26.99;21.92
58082;BME280;43876;55.576;38.242;2022-08-21T12:47:15;100639.91;;;27.05;21.84
58082;BME280;43876;55.576;38.242;2022-08-21T12:49:59;100647.94;;;27.05;21.90
58082;BME280;43876;55.576;38.242;2022-08-21T12:52:38;100639.19;;;27.01;22.09
58082;BME280;43876;55.576;38.242;2022-08-21T12:55:12;100636.59;;;26.82;22.05
58082;BME280;43876;55.576;38.242;2022-08-21T12:57:42;100651.00;;;26.97;22.15
58082;BME280;43876;55.576;38.242;2022-08-21T13:00:12;100656.53;;;27.11;22.10
58082;BME280;43876;55.576;38.242;2022-08-21T13:02:47;100642.31;;;27.27;22.13
58082;BME280;43876;55.576;38.242;2022-08-21T13:05:23;100657.56;;;27.26;21.90
58082;BME280;43876;55.576;38.242;2022-08-21T13:07:57;100637.34;;;27.19;21.79
58082;BME280;43876;55.576;38.242;2022-08-21T13:10:28;100645.34;;;27.03;21.94
58082;BME280;43876;55.576;38.242;2022-08-21T13:12:59;100630.06;;;26.88;22.41
58082;BME280;43876;55.576;38.242;2022-08-21T13:15:41;100650.72;;;26.86;22.33
58082;BME280;43876;55.576;38.242;2022-08-21T13:18:27;100652.78;;;26.81;22.24
58082;BME280;43876;55.576;38.242;2022-08-21T13:21:11;100654.44;;;26.83;22.44
58082;BME280;43876;55.576;38.242;2022-08-21T13:23:38;100641.41;;;26.93;22.35
58082;BME280;43876;55.576;38.242;2022-08-21T13:26:18;100651.72;;;27.01;22.34
58082;BME280;43876;55.576;38.242;2022-08-21T13:28:46;100651.81;;;26.99;22.43
58082;BME280;43876;55.576;38.242;2022-08-21T13:31:26;100658.03;;;26.82;22.62
58082;BME280;43876;55.576;38.242;2022-08-21T13:33:54;100654.50;;;26.82;22.99
58082;BME280;43876;55.576;38.242;2022-08-21T13:36:50;100634.41;;;26.73;22.84
58082;BME280;43876;55.576;38.242;2022-08-21T13:39:19;100642.44;;;26.90;22.95
58082;BME280;43876;55.576;38.242;2022-08-21T13:41:49;100626.28;;;26.92;23.08
58082;BME280;43876;55.576;38.242;2022-08-21T13:44:19;100636.59;;;27.00;22.45
58082;BME280;43876;55.576;38.242;2022-08-21T13:46:47;100636.69;;;26.98;22.96
58082;BME280;43876;55.576;38.242;2022-08-21T13:49:19;100651.00;;;26.97;23.00
58082;BME280;43876;55.576;38.242;2022-08-21T13:51:47;100625.56;;;26.88;23.03
58082;BME280;43876;55.576;38.242;2022-08-21T13:54:25;100636.03;;;27.10;22.70
58082;BME280;43876;55.576;38.242;2022-08-21T13:56:54;100602.69;;;26.99;22.48
58082;BME280;43876;55.576;38.242;2022-08-21T13:59:29;100635.84;;;27.13;22.55
58082;BME280;43876;55.576;38.242;2022-08-21T14:04:47;100617.28;;;27.10;22.21
58082;BME280;43876;55.576;38.242;2022-08-21T14:07:39;100607.41;;;27.11;22.12
58082;BME280;43876;55.576;38.242;2022-08-21T14:10:22;100599.28;;;26.95;21.69
58082;BME280;43876;55.576;38.242;2022-08-21T14:12:53;100607.66;;;27.06;21.85
58082;BME280;43876;55.576;38.242;2022-08-21T14:15:28;100594.56;;;27.00;21.56
58082;BME280;43876;55.576;38.242;2022-08-21T14:18:16;100607.81;;;27.03;21.65
58082;BME280;43876;55.576;38.242;2022-08-21T14:20:44;100572.69;;;26.74;21.68
58082;BME280;43876;55.576;38.242;2022-08-21T14:23:11;100615.56;;;26.92;21.55
58082;BME280;43876;55.576;38.242;2022-08-21T14:25:42;100579.53;;;26.80;21.87
58082;BME280;43876;55.576;38.242;2022-08-21T14:28:26;100612.88;;;26.92;21.73
58082;BME280;43876;55.576;38.242;2022-08-21T14:30:56;100611.28;;;26.88;21.85
58082;BME280;43876;55.576;38.242;2022-08-21T14:33:27;100611.47;;;26.85;21.82
58082;BME280;43876;55.576;38.242;2022-08-21T14:35:55;100594.94;;;26.76;22.27
58082;BME280;43876;55.576;38.242;2022-08-21T14:38:24;100599.56;;;26.73;22.42
58082;BME280;43876;55.576;38.242;2022-08-21T14:40:57;100601.53;;;26.69;22.69
58082;BME280;43876;55.576;38.242;2022-08-21T14:43:26;100604.75;;;26.59;23.44